Flight Track Log - Related Links

Times and Time Zones

All times are in EDT time to prevent confusion due to time zone crossing. See the UAL653 flight status page for this flight to view local times or setup timezone preferences in your user account.

Time Position Orientation Groundspeed Altitude Reporting Facility
EDT Latitude Longitude Course Direction KTS MPH feet Rate Location/Type
Sun 04:29:24 PM 33.9333 -118.4333 90° East 166 191 1,500  Level Southern California TRACON
Sun 04:30:24 PM 33.9000 -118.5000 239° Southwest 232 267 3,400 2,147 Climbing Southern California TRACON
Sun 04:31:00 PM 33.7523 -118.6031 132° Southeast  Level FlightAware Approximate
Sun 04:31:13 PM 33.8619 -118.5542 230° Southwest 254 292 5,400  Level Los Angeles Center
Sun 04:32:00 PM 33.6772 -118.4796 101° East  Level FlightAware Approximate
Sun 04:32:15 PM 33.7914 -118.5503 177° South 279 321 7,900  Level Los Angeles Center
Sun 04:33:00 PM 33.6333 -118.3324 90° East  Level FlightAware Approximate
Sun 04:33:17 PM 33.7131 -118.5250 165° South 296 341 10,200  Level Los Angeles Center
Sun 04:34:00 PM 33.6333 -118.1749 90° East  Level FlightAware Approximate
Sun 04:34:19 PM 33.6658 -118.4325 122° Southeast 348 400 11,600  Level Los Angeles Center
Sun 04:35:21 PM 33.6408 -118.2842 101° East 386 444 13,600 1,839 Climbing Los Angeles Center
Sun 04:36:23 PM 33.6433 -118.1478 89° East 414 476 15,400 1,790 Climbing Los Angeles Center
Sun 04:37:25 PM 33.6442 -118.0056 90° East 425 489 17,300 1,548 Climbing Los Angeles Center
Sun 04:38:27 PM 33.6442 -117.8575 90° East 442 509 18,600 1,548 Climbing Los Angeles Center
Sun 04:39:29 PM 33.6433 -117.6731 90° East 462 532 20,500 1,597 Climbing Los Angeles Center
Sun 04:40:31 PM 33.6417 -117.5136 91° East 478 550 21,900 1,306 Climbing Los Angeles Center
Sun 04:41:33 PM 33.6400 -117.3475 91° East 496 571 23,200 1,306 Climbing Los Angeles Center
Sun 04:42:35 PM 33.6422 -117.1758 89° East 513 590 24,600 871 Climbing Los Angeles Center
Sun 04:43:37 PM 33.6392 -117.0025 91° East 524 603 25,000 353 Climbing Los Angeles Center
Sun 04:44:51 PM 33.6378 -116.7858 90° East 523 602 25,400 882 Climbing Los Angeles Center
Sun 04:45:53 PM 33.6353 -116.6117 91° East 518 596 27,000 1,210 Climbing Los Angeles Center
Sun 04:46:55 PM 33.6342 -116.3986 90° East 529 609 27,900 484 Climbing Los Angeles Center
Sun 04:47:57 PM 33.6464 -116.2183 85° East 539 620 28,000 532 Climbing Los Angeles Center
Sun 04:48:59 PM 33.6950 -116.0456 71° East 544 626 29,000 919 Climbing Los Angeles Center
Sun 04:50:01 PM 33.7475 -115.8764 69° East 539 620 29,900 919 Climbing Los Angeles Center
Sun 04:51:03 PM 33.7983 -115.7036 70° East 546 628 30,900 1,113 Climbing Los Angeles Center
Sun 04:52:05 PM 33.8475 -115.5314 71° East 546 628 32,200 1,258 Climbing Los Angeles Center
Sun 04:53:07 PM 33.8964 -115.3633 71° East 534 615 33,500 960 Climbing Los Angeles Center
Sun 04:54:10 PM 33.9533 -115.1606 71° East 533 613 34,200 864 Climbing Los Angeles Center
Sun 04:55:12 PM 34.0053 -114.9908 70° East 539 620 35,300 968 Climbing Los Angeles Center
Sun 04:56:14 PM 34.0531 -114.8239 71° East 529 609 36,200 774 Climbing Los Angeles Center
Sun 04:57:16 PM 34.0983 -114.6575 72° East 523 602 36,900 387 Climbing Los Angeles Center
Sun 04:58:18 PM 34.1469 -114.4897 71° East 529 609 37,000 48 Climbing Los Angeles Center
Sun 04:59:20 PM 34.1969 -114.3219 70° East 532 612 37,000  Level Los Angeles Center
Sun 04:59:36 PM 34.2111 -114.2678 72° East 528 608 37,000  Level Albuquerque Center
Sun 05:00:37 PM 34.2600 -114.0953 71° East 534 615 37,000  Level Albuquerque Center
Sun 05:01:39 PM 34.3089 -113.9219 71° East 540 621 37,000  Level Albuquerque Center
Sun 05:02:40 PM 34.3672 -113.7153 71° East 542 624 37,000  Level Albuquerque Center
Sun 05:03:42 PM 34.4147 -113.5403 72° East 542 624 37,000  Level Albuquerque Center
Sun 05:04:43 PM 34.4619 -113.3761 71° East 539 620 37,000  Level Albuquerque Center
Sun 05:05:45 PM 34.5089 -113.2050 72° East 538 619 37,000  Level Albuquerque Center
Sun 05:06:46 PM 34.5553 -113.0356 72° East 536 617 37,000  Level Albuquerque Center
Sun 05:07:48 PM 34.5997 -112.8664 72° East 534 615 37,000  Level Albuquerque Center
Sun 05:08:49 PM 34.6444 -112.6983 72° East 531 611 37,000  Level Albuquerque Center
Sun 05:09:51 PM 34.6967 -112.4942 73° East 533 613 37,000  Level Albuquerque Center
Sun 05:10:52 PM 34.7161 -112.3347 82° East 533 613 37,000  Level Albuquerque Center
Sun 05:11:54 PM 34.7328 -112.1575 83° East 529 609 37,000  Level Albuquerque Center
Sun 05:12:55 PM 34.7481 -111.9789 84° East 529 609 37,000  Level Albuquerque Center
Sun 05:13:57 PM 34.7636 -111.7906 84° East 530 610 37,000  Level Albuquerque Center
Sun 05:14:59 PM 34.7814 -111.5869 84° East 527 606 37,000  Level Albuquerque Center
Sun 05:16:00 PM 34.7972 -111.4067 84° East 531 611 37,000  Level Albuquerque Center
Sun 05:17:02 PM 34.8119 -111.2294 84° East 529 609 37,000  Level Albuquerque Center
Sun 05:18:03 PM 34.8275 -111.0506 84° East 530 610 37,000  Level Albuquerque Center
Sun 05:19:05 PM 34.8417 -110.8711 84° East 531 611 37,000  Level Albuquerque Center
Sun 05:20:06 PM 34.8583 -110.6642 84° East 529 609 37,000  Level Albuquerque Center
Sun 05:21:08 PM 34.8719 -110.4928 84° East 530 610 37,000  Level Albuquerque Center
Sun 05:22:09 PM 34.8842 -110.3206 85° East 533 613 37,000  Level Albuquerque Center
Sun 05:23:10 PM 34.9011 -110.1217 84° East 532 612 37,000  Level Albuquerque Center
Sun 05:24:12 PM 34.9125 -109.9475 85° East 535 616 37,000  Level Albuquerque Center
Sun 05:25:13 PM 34.9278 -109.7453 85° East 538 619 37,000  Level Albuquerque Center
Sun 05:26:15 PM 34.9394 -109.5739 85° East 534 615 37,000  Level Albuquerque Center
Sun 05:27:16 PM 34.9508 -109.4011 85° East 535 616 37,000  Level Albuquerque Center
Sun 05:28:18 PM 34.9636 -109.2011 85° East 533 613 37,000  Level Albuquerque Center
Sun 05:29:19 PM 34.9742 -109.0292 86° East 532 612 37,000  Level Albuquerque Center
Sun 05:30:21 PM 34.9803 -108.8275 88° East 533 613 37,000  Level Albuquerque Center
Sun 05:31:22 PM 34.9869 -108.6553 87° East 533 613 37,000  Level Albuquerque Center
Sun 05:32:24 PM 34.9958 -108.4547 87° East 532 612 37,000  Level Albuquerque Center
Sun 05:33:25 PM 35.0017 -108.2831 88° East 531 611 37,000  Level Albuquerque Center
Sun 05:34:26 PM 35.0094 -108.1111 87° East 531 611 37,000  Level Albuquerque Center
Sun 05:35:28 PM 35.0153 -107.9128 88° East 527 606 37,000  Level Albuquerque Center
Sun 05:36:29 PM 35.0197 -107.7283 88° East 531 611 37,000  Level Albuquerque Center
Sun 05:37:31 PM 35.0236 -107.5492 88° East 529 609 37,000  Level Albuquerque Center
Sun 05:38:32 PM 35.0289 -107.3706 88° East 529 609 37,000  Level Albuquerque Center
Sun 05:39:33 PM 35.0339 -107.1719 88° East 523 602 37,000  Level Albuquerque Center
Sun 05:40:35 PM 35.0394 -107.0031 88° East 520 598 37,000  Level Albuquerque Center
Sun 05:41:36 PM 35.0436 -106.8386 88° East 510 587 37,000  Level Albuquerque Center
Sun 05:42:38 PM 35.0528 -106.6458 87° East 510 587 37,000  Level Albuquerque Center
Sun 05:43:39 PM 35.0644 -106.4803 85° East 514 592 37,000  Level Albuquerque Center
Sun 05:44:40 PM 35.0736 -106.3097 86° East 505 581 37,000  Level Albuquerque Center
Sun 05:45:42 PM 35.0828 -106.1392 86° East 504 580 37,000  Level Albuquerque Center
Sun 05:46:43 PM 35.0906 -105.9675 87° East 505 581 37,000  Level Albuquerque Center
Sun 05:47:44 PM 35.1003 -105.7808 86° East 506 582 37,000  Level Albuquerque Center
Sun 05:48:46 PM 35.1064 -105.6069 87° East 508 585 37,000  Level Albuquerque Center
Sun 05:49:47 PM 35.1125 -105.4319 88° East 511 588 37,000  Level Albuquerque Center
Sun 05:50:49 PM 35.1197 -105.2567 87° East 513 590 37,000  Level Albuquerque Center
Sun 05:51:50 PM 35.1275 -105.0814 87° East 513 590 37,000  Level Albuquerque Center
Sun 05:52:51 PM 35.1381 -104.8756 86° East 516 594 37,000  Level Albuquerque Center
Sun 05:53:53 PM 35.1458 -104.6994 87° East 515 593 37,000  Level Albuquerque Center
Sun 05:54:54 PM 35.1542 -104.5247 87° East 521 600 37,000  Level Albuquerque Center
Sun 05:55:55 PM 35.1597 -104.3461 88° East 527 606 37,000  Level Albuquerque Center
Sun 05:56:57 PM 35.1658 -104.1683 88° East 525 604 37,000  Level Albuquerque Center
Sun 05:57:58 PM 35.1711 -103.9906 88° East 525 604 37,000  Level Albuquerque Center
Sun 05:58:59 PM 35.1761 -103.8136 88° East 526 605 37,000  Level Albuquerque Center
Sun 06:00:01 PM 35.1825 -103.6356 87° East 525 604 37,000  Level Albuquerque Center
Sun 06:01:02 PM 35.1892 -103.4286 88° East 520 598 37,000  Level Albuquerque Center
Sun 06:02:03 PM 35.1953 -103.2511 88° East 520 598 37,000  Level Albuquerque Center
Sun 06:03:05 PM 35.2011 -103.0756 88° East 516 594 37,000  Level Albuquerque Center
Sun 06:04:06 PM 35.2053 -102.9014 88° East 513 590 37,000  Level Albuquerque Center
Sun 06:05:07 PM 35.2114 -102.7289 87° East 509 586 37,000  Level Albuquerque Center
Sun 06:06:08 PM 35.2161 -102.5569 88° East 508 585 37,000  Level Albuquerque Center
Sun 06:07:10 PM 35.2192 -102.3861 89° East 505 581 37,000  Level Albuquerque Center
Sun 06:08:11 PM 35.2222 -102.2153 89° East 504 580 37,000  Level Albuquerque Center
Sun 06:09:12 PM 35.2250 -102.0456 89° East 502 578 37,000  Level Albuquerque Center
Sun 06:10:14 PM 35.2303 -101.8639 88° East 503 579 37,000  Level Albuquerque Center
Sun 06:11:15 PM 35.2347 -101.6911 88° East 504 580 37,000  Level Albuquerque Center
Sun 06:12:16 PM 35.2433 -101.5139 87° East 504 580 37,000  Level Albuquerque Center
Sun 06:13:18 PM 35.2519 -101.3414 86° East 507 583 37,000  Level Albuquerque Center
Sun 06:14:19 PM 35.2583 -101.1728 87° East 506 582 37,000  Level Albuquerque Center
Sun 06:15:20 PM 35.2661 -101.0017 87° East 506 582 37,000  Level Albuquerque Center
Sun 06:16:22 PM 35.2742 -100.7969 87° East 504 580 37,000  Level Albuquerque Center
Sun 06:17:23 PM 35.2822 -100.6217 87° East 504 580 37,000  Level Albuquerque Center
Sun 06:18:24 PM 35.2883 -100.4508 87° East 504 580 37,000  Level Albuquerque Center
Sun 06:19:26 PM 35.2964 -100.2806 87° East 503 579 37,000  Level Albuquerque Center
Sun 06:20:27 PM 35.3011 -100.1097 88° East 503 579 37,000  Level Albuquerque Center
Sun 06:21:28 PM 35.3064 -99.9397 88° East 502 578 37,000  Level Albuquerque Center
Sun 06:22:30 PM 35.3117 -99.7694 88° East 501 577 37,000  Level Albuquerque Center
Sun 06:23:31 PM 35.3167 -99.5994 88° East 502 578 37,000  Level Albuquerque Center
Sun 06:24:32 PM 35.3222 -99.4303 88° East 500 575 37,000  Level Albuquerque Center
Sun 06:25:22 PM 35.3258 -99.2658 88° East 497 572 37,000  Level Fort Worth Center
Sun 06:26:22 PM 35.3281 -99.0981 89° East 497 572 37,000  Level Fort Worth Center
Sun 06:27:22 PM 35.3322 -98.9278 88° East 497 572 37,000  Level Fort Worth Center
Sun 06:28:22 PM 35.3342 -98.7622 89° East 497 572 37,000  Level Fort Worth Center
Sun 06:29:22 PM 35.3400 -98.5969 87° East 491 565 37,000  Level Fort Worth Center
Sun 06:30:22 PM 35.3436 -98.4494 88° East 491 565 37,000  Level Fort Worth Center
Sun 06:31:22 PM 35.3489 -98.2839 88° East 486 559 37,000  Level Fort Worth Center
Sun 06:32:22 PM 35.3500 -98.1161 89° East 481 554 37,000  Level Fort Worth Center
Sun 06:33:22 PM 35.3531 -97.9481 89° East 481 554 37,000  Level Fort Worth Center
Sun 06:34:22 PM 35.3556 -97.7825 89° East 481 554 37,000  Level Fort Worth Center
Sun 06:35:22 PM 35.3581 -97.6172 89° East 481 554 37,000  Level Fort Worth Center
Sun 06:36:22 PM 35.3644 -97.4236 88° East 504 580 37,000  Level Fort Worth Center
Sun 06:37:22 PM 35.3686 -97.2736 88° East 504 580 37,000  Level Fort Worth Center
Sun 06:38:22 PM 35.3683 -97.0878 90° East 498 573 37,000  Level Fort Worth Center
Sun 06:39:22 PM 35.3719 -96.9222 88° East 488 562 37,000  Level Fort Worth Center
Sun 06:40:22 PM 35.3753 -96.7567 89° East 483 556 37,000  Level Fort Worth Center
Sun 06:41:22 PM 35.3764 -96.5911 89° East 483 556 37,000  Level Fort Worth Center
Sun 06:42:22 PM 35.3794 -96.4258 89° East 483 556 37,000  Level Fort Worth Center
Sun 06:43:22 PM 35.3822 -96.2603 89° East 478 550 37,000  Level Fort Worth Center
Sun 06:44:22 PM 35.3828 -96.0947 90° East 478 550 37,000  Level Fort Worth Center
Sun 06:45:22 PM 35.3828 -95.9267 90° East 478 550 37,000  Level Fort Worth Center
Sun 06:46:22 PM 35.3853 -95.7814 89° East 478 550 37,000  Level Fort Worth Center
Sun 06:47:22 PM 35.3869 -95.6108 89° East 478 550 37,000  Level Fort Worth Center
Sun 06:48:22 PM 35.3886 -95.4453 89° East 478 550 37,000  Level Fort Worth Center
Sun 06:49:20 PM 35.3856 -95.2847 91° East 480 552 37,000  Level Memphis Center
Sun 06:50:20 PM 35.3858 -95.1167 90° East 501 577 37,000  Level Memphis Center
Sun 06:51:21 PM 35.3881 -94.9514 89° East 496 571 37,000  Level Memphis Center
Sun 06:52:20 PM 35.3897 -94.7833 89° East 496 571 37,000  Level Memphis Center
Sun 06:53:20 PM 35.3894 -94.6178 90° East 496 571 37,000  Level Memphis Center
Sun 06:54:20 PM 35.3886 -94.4497 90° East 496 571 37,000  Level Memphis Center
Sun 06:55:20 PM 35.3878 -94.2842 90° East 496 571 37,000  Level Memphis Center
Sun 06:56:20 PM 35.3764 -94.1181 95° East 496 571 37,000  Level Memphis Center
Sun 06:57:20 PM 35.3644 -93.9547 95° East 491 565 37,000  Level Memphis Center
Sun 06:58:21 PM 35.3522 -93.7911 95° East 486 559 37,000  Level Memphis Center
Sun 06:59:20 PM 35.3400 -93.6253 95° East 486 559 37,000  Level Memphis Center
Sun 07:00:20 PM 35.3297 -93.4644 94° East 486 559 37,000  Level Memphis Center
Sun 07:01:20 PM 35.3225 -93.3242 94° East 475 547 37,000  Level Memphis Center
Sun 07:02:20 PM 35.3081 -93.1458 96° East 475 547 37,000  Level Memphis Center
Sun 07:03:20 PM 35.2947 -92.9825 96° East 481 554 37,000  Level Memphis Center
Sun 07:04:20 PM 35.2794 -92.8089 96° East 493 567 37,000  Level Memphis Center
Sun 07:05:21 PM 35.2661 -92.6433 96° East 488 562 37,000  Level Memphis Center
Sun 07:06:20 PM 35.2544 -92.4778 95° East 488 562 37,000  Level Memphis Center
Sun 07:07:20 PM 35.2361 -92.3144 98° East 483 556 37,000  Level Memphis Center
Sun 07:08:20 PM 35.2222 -92.1311 95° East 488 562 37,000  Level Memphis Center
Sun 07:09:20 PM 35.2078 -91.9683 96° East 482 555 37,000  Level Memphis Center
Sun 07:10:20 PM 35.1931 -91.8053 96° East 482 555 37,000  Level Memphis Center
Sun 07:11:20 PM 35.1781 -91.6400 96° East 482 555 37,000  Level Memphis Center
Sun 07:12:20 PM 35.1631 -91.4772 96° East 482 555 37,000  Level Memphis Center
Sun 07:13:20 PM 35.1497 -91.3194 96° East 482 555 37,000  Level Memphis Center
Sun 07:14:20 PM 35.1342 -91.1594 97° East 473 544 37,000  Level Memphis Center
Sun 07:15:20 PM 35.1183 -90.9917 97° East 473 544 37,000  Level Memphis Center
Sun 07:16:20 PM 35.1044 -90.8317 96° East 481 554 37,000  Level Memphis Center
Sun 07:17:20 PM 35.0864 -90.6692 98° East 481 554 37,000  Level Memphis Center
Sun 07:18:20 PM 35.0719 -90.5067 96° East 481 554 37,000  Level Memphis Center
Sun 07:19:20 PM 35.0575 -90.3444 96° East 481 554 37,000  Level Memphis Center
Sun 07:20:20 PM 35.1075 -90.1972 67° East 462 532 37,000  Level Memphis Center
Sun 07:21:20 PM 35.1572 -90.0625 66° East 467 537 37,000  Level Memphis Center
Sun 07:22:20 PM 35.2194 -89.9147 63° Northeast 481 554 37,000  Level Memphis Center
Sun 07:23:20 PM 35.2833 -89.7694 62° Northeast 487 560 37,000  Level Memphis Center
Sun 07:24:20 PM 35.3453 -89.6239 62° Northeast 480 552 37,000  Level Memphis Center
Sun 07:25:21 PM 35.4131 -89.4653 62° Northeast 480 552 37,000  Level Memphis Center
Sun 07:26:20 PM 35.4722 -89.3194 63° Northeast 474 545 37,000  Level Memphis Center
Sun 07:27:20 PM 35.5336 -89.1758 62° Northeast 474 545 37,000  Level Memphis Center
Sun 07:28:20 PM 35.5967 -89.0269 62° Northeast 474 545 37,000  Level Memphis Center
Sun 07:29:20 PM 35.6575 -88.8803 63° Northeast 474 545 37,000  Level Memphis Center
Sun 07:30:20 PM 35.7164 -88.7386 63° Northeast 474 545 37,000  Level Memphis Center
Sun 07:31:20 PM 35.7769 -88.5914 63° Northeast 469 540 37,000  Level Memphis Center
Sun 07:32:21 PM 35.8394 -88.4467 62° Northeast 469 540 37,000  Level Memphis Center
Sun 07:33:20 PM 35.8975 -88.3044 63° Northeast 469 540 37,000  Level Memphis Center
Sun 07:34:20 PM 35.9578 -88.1644 62° Northeast 469 540 37,000  Level Memphis Center
Sun 07:35:20 PM 36.0156 -88.0244 63° Northeast 458 527 37,000  Level Memphis Center
Sun 07:36:20 PM 36.0775 -87.8814 62° Northeast 458 527 37,000  Level Memphis Center
Sun 07:37:20 PM 36.1350 -87.7408 63° Northeast 458 527 37,000  Level Memphis Center
Sun 07:38:20 PM 36.1864 -87.6081 64° Northeast 458 527 37,000  Level Memphis Center
Sun 07:39:20 PM 36.2458 -87.4669 62° Northeast 458 527 37,000  Level Memphis Center
Sun 07:40:20 PM 36.3047 -87.3208 63° Northeast 458 527 37,000  Level Memphis Center
Sun 07:41:20 PM 36.3636 -87.1767 63° Northeast 458 527 37,000  Level Memphis Center
Sun 07:42:21 PM 36.4306 -87.0194 62° Northeast 458 527 37,000  Level Memphis Center
Sun 07:43:20 PM 36.4908 -86.8647 64° Northeast 473 544 37,000  Level Memphis Center
Sun 07:44:20 PM 36.5450 -86.7150 66° East 478 550 37,000  Level Memphis Center
Sun 07:45:20 PM 36.6050 -86.5650 63° Northeast 472 543 37,000  Level Memphis Center
Sun 07:46:20 PM 36.6631 -86.4175 64° Northeast 472 543 37,000  Level Memphis Center
Sun 07:47:20 PM 36.7150 -86.2856 64° Northeast 472 543 37,000  Level Memphis Center
Sun 07:49:18 PM 36.8283 -85.9869 65° Northeast 479 551 37,000  Level Indianapolis Center
Sun 07:50:20 PM 36.8858 -85.8333 65° Northeast 483 556 37,000  Level Indianapolis Center
Sun 07:51:21 PM 36.9439 -85.6814 64° Northeast 481 554 37,000 -244 Level Indianapolis Center
Sun 07:52:23 PM 37.0022 -85.5272 65° Northeast 484 557 36,500 -537 Descending Indianapolis Center
Sun 07:53:24 PM 37.0706 -85.3503 64° Northeast 490 564 35,900 -639 Descending Indianapolis Center
Sun 07:54:25 PM 37.1303 -85.1950 64° Northeast 492 566 35,200 -639 Descending Indianapolis Center
Sun 07:55:26 PM 37.1875 -85.0406 65° Northeast 485 558 34,600 -537 Descending Indianapolis Center
Sun 07:56:28 PM 37.2447 -84.8878 65° Northeast 481 554 34,100 -537 Descending Indianapolis Center
Sun 07:57:29 PM 37.3019 -84.7353 65° Northeast 481 554 33,500 -738 Descending Indianapolis Center
Sun 07:58:30 PM 37.3581 -84.5806 65° Northeast 484 557 32,600 -934 Descending Indianapolis Center
Sun 07:59:31 PM 37.4133 -84.4256 66° East 484 557 31,600 -787 Descending Indianapolis Center
Sun 08:00:32 PM 37.4722 -84.2703 64° Northeast 487 560 31,000 -293 Descending Indianapolis Center
Sun 08:01:34 PM 37.5297 -84.1122 65° Northeast 494 568 31,000  Level Indianapolis Center
Sun 08:02:35 PM 37.5858 -83.9583 65° Northeast 484 557 31,000  Level Indianapolis Center
Sun 08:03:36 PM 37.6406 -83.8042 66° East 480 552 31,000  Level Indianapolis Center
Sun 08:04:37 PM 37.7056 -83.6239 65° Northeast 480 552 31,000  Level Indianapolis Center
Sun 08:05:39 PM 37.7608 -83.4706 65° Northeast 479 551 31,000  Level Indianapolis Center
Sun 08:06:40 PM 37.8156 -83.3167 66° East 479 551 31,000  Level Indianapolis Center
Sun 08:07:41 PM 37.8703 -83.1628 66° East 477 549 31,000  Level Indianapolis Center
Sun 08:08:42 PM 37.9253 -83.0061 66° East 484 557 31,000  Level Indianapolis Center
Sun 08:09:44 PM 37.9789 -82.8497 66° East 484 557 31,000  Level Indianapolis Center
Sun 08:10:45 PM 38.0339 -82.6914 66° East 489 563 31,000  Level Indianapolis Center
Sun 08:11:46 PM 38.0881 -82.5333 66° East 488 562 31,000  Level Indianapolis Center
Sun 08:12:48 PM 38.1339 -82.3544 72° East 493 567 31,000  Level Indianapolis Center
Sun 08:13:49 PM 38.1511 -82.1803 83° East 497 572 31,000  Level Indianapolis Center
Sun 08:14:50 PM 38.1694 -82.0086 82° East 494 568 31,000  Level Indianapolis Center
Sun 08:15:51 PM 38.1856 -81.8336 83° East 500 575 31,000  Level Indianapolis Center
Sun 08:16:53 PM 38.2006 -81.6586 84° East 502 578 31,000  Level Indianapolis Center
Sun 08:17:54 PM 38.2158 -81.4833 84° East 503 579 31,000  Level Indianapolis Center
Sun 08:18:55 PM 38.2303 -81.3081 84° East 503 579 31,000  Level Indianapolis Center
Sun 08:19:56 PM 38.2528 -81.0981 82° East 504 580 31,000  Level Indianapolis Center
Sun 08:20:58 PM 38.2811 -80.9272 78° East 498 573 31,000  Level Indianapolis Center
Sun 08:21:59 PM 38.3119 -80.7528 77° East 505 581 31,000  Level Indianapolis Center
Sun 08:22:54 PM 38.3400 -80.5953 77° East 499 574 31,000  Level Washington Center
Sun 08:23:56 PM 38.3683 -80.4169 78° East 505 581 31,000  Level Washington Center
Sun 08:24:54 PM 38.3953 -80.2597 78° East 505 581 31,000  Level Washington Center
Sun 08:25:55 PM 38.4250 -80.0839 78° East 505 581 31,000 -393 Level Washington Center
Sun 08:26:56 PM 38.4522 -79.9081 79° East 505 581 30,200 -1,613 Descending Washington Center
Sun 08:27:54 PM 38.4814 -79.7347 78° East 505 581 27,800 -2,593 Descending Washington Center
Sun 08:28:54 PM 38.5083 -79.5531 79° East 491 565 25,100 -1,983 Descending Washington Center
Sun 08:29:55 PM 38.5322 -79.3950 79° East 471 542 23,800 -1,537 Descending Washington Center
Sun 08:30:55 PM 38.5575 -79.2531 77° East 441 507 22,000 -1,587 Descending Washington Center
Sun 08:31:56 PM 38.5756 -79.1369 79° East 423 487 20,600 -1,835 Descending Washington Center
Sun 08:32:56 PM 38.6011 -78.9736 79° East 401 461 18,300 -2,000 Descending Washington Center
Sun 08:33:56 PM 38.6236 -78.8364 78° East 388 447 16,600 -1,729 Descending Washington Center
Sun 08:34:54 PM 38.6519 -78.7100 74° East 380 437 14,900 -1,678 Descending Washington Center
Sun 08:35:54 PM 38.6842 -78.5889 71° East 364 419 13,300 -1,672 Descending Washington Center
Sun 08:36:56 PM 38.7100 -78.4783 73° East 343 395 11,500 -1,200 Descending Washington Center
Sun 08:37:54 PM 38.7394 -78.3703 71° East 329 379 10,900 -712 Descending Washington Center
Sun 08:38:54 PM 38.7914 -78.2978 47° Northeast 285 328 10,100 -950 Descending Washington Center
Sun 08:39:54 PM 38.8408 -78.2275 48° Northeast 274 315 9,000 -836 Descending Washington Center
Sun 08:40:56 PM 38.8739 -78.1381 65° Northeast 274 315 8,400 -600 Descending Washington Center
Sun 08:41:54 PM 38.8947 -78.0453 74° East 269 310 7,800 -857 Descending Washington Center
Sun 08:42:55 PM 38.9150 -77.9633 72° East 258 297 6,700 -900 Descending Washington Center
Sun 08:43:54 PM 38.9356 -77.8786 73° East 246 283 6,000 -350 Descending Washington Center
Sun 08:44:55 PM 38.9556 -77.8019 71° East 246 283 6,000  Level Washington Center
Sun 08:46:46 PM 38.9500 -77.6333 92° East 251 289 6,000  Level Potomac TRACON
Sun 08:47:40 PM 38.8833 -77.6000 159° South 251 289 6,000  Level Potomac TRACON
Sun 08:48:40 PM 38.8167 -77.5667 159° South 250 288 6,000 -450 Level Potomac TRACON
Sun 08:49:40 PM 38.7500 -77.5833 191° South 241 277 5,100 -500 Descending Potomac TRACON
Sun 08:50:40 PM 38.7000 -77.5500 153° Southeast 253 291 5,000 -400 Descending Potomac TRACON
Sun 08:51:40 PM 38.7167 -77.4833 72° East 227 261 4,300 -762 Descending Potomac TRACON
Sun 08:52:46 PM 38.7833 -77.4667 11° North 188 216 3,400 -900 Descending Potomac TRACON
Sun 08:53:40 PM 38.8167 -77.4667 360° North 186 214 2,500 -1,000 Descending Potomac TRACON

Login

Don't have an account? Register now (free) for customized features, flight alerts, and more!